Terminal Aerodrome Forecast
Issued by NWS St Louis, MO

Home | Current Version | Previous Version | Text Only | Print | Product List | Glossary On
Versions: 1 2 3 4 5 6 7 8 9 10 11 12 13 14 15 16 17 18 19
000
FTUS43 KLSX 281100
TAFCOU
TAF
KCOU 281140Z 2812/2912 14013KT P6SM SKC
     FM281500 16014G21KT P6SM SCT250
     FM290000 18015KT P6SM SCT060 BKN200 WS018/23050KT
     FM290500 24015G22KT P6SM BKN040
     FM290800 29017G27KT P6SM BKN020=

USA.gov is the U.S. government's official web portal to all federal, state and local government web resources and services.